Aviation Digital Data Service (ADDS)

Output produced by METARs form (1024 UTC 23 January 2019)
found at http://aviationweather.gov/metar/data/
 
METAR text: EGKB 231020Z 33010KT 9000 FEW010 BKN013 00/M01 Q1001
Conditions at: EGKB (BIGGIN HILL , GB) observed 1020 UTC 23 January 2019
Temperature: 0.0°C (32°F)
Dewpoint: -1.0°C (30°F) [RH = 93%]
Pressure (altimeter): 29.56 inches Hg (1001.0 mb)
Winds: from the NNW (330 degrees) at 12 MPH (10 knots; 5.1 m/s)
Visibility: 6 miles ( 9 km)
Ceiling: 1300 feet AGL
Clouds: few clouds at 1000 feet AGL
broken clouds at 1300 feet AGL
Weather: no significant weather observed at this time

Forecast for: EGKB (BIGGIN HILL , GB)
Text: TAF EGKB 230758Z 2309/2318 34004KT 9999 FEW020
Forecast period: 0900 to 1800 UTC 23 January 2019
Forecast type: FROM: standard forecast or significant change
Winds: from the NNW (340 degrees) at 5 MPH (4 knots; 2.1 m/s)
Visibility: 6 or more miles 10+ km)
Ceiling: at least 12,000 feet AGL
Clouds: few clouds at 2000 feet AGL
Weather: no significant weather forecast for this period
Text: TEMPO 2309/2311 8000 BKN006
Forecast period: 0900 to 1100 UTC 23 January 2019
Forecast type: TEMPORARY: The following changes expected for less than half the time period
Visibility: 5 miles (8 km)
Ceiling: 600 feet AGL
Clouds: broken clouds at 600 feet AGL
Weather: no significant weather forecast for this period